createdAt,value
2023-06-23T00:02:00.646Z,28.88
2023-06-23T00:04:27.373Z,29.05
2023-06-23T00:06:58.149Z,28.61
2023-06-23T00:09:27.147Z,28.83
2023-06-23T00:11:53.817Z,28.83
2023-06-23T00:14:22.967Z,28.63
2023-06-23T00:16:52.317Z,29.10
2023-06-23T00:19:26.363Z,29.06
2023-06-23T00:21:56.966Z,29.00
2023-06-23T00:24:23.802Z,29.16
2023-06-23T00:26:54.117Z,29.58
2023-06-23T00:29:22.986Z,29.62
2023-06-23T00:31:52.737Z,30.14
2023-06-23T00:34:28.788Z,30.29
2023-06-23T00:36:56.167Z,31.11
2023-06-23T00:39:23.384Z,31.21
2023-06-23T00:41:57.094Z,30.96
2023-06-23T00:44:23.839Z,30.87
2023-06-23T00:46:51.169Z,30.14
2023-06-23T00:49:17.849Z,30.00
2023-06-23T00:51:45.627Z,30.00
2023-06-23T00:54:15.413Z,29.92
2023-06-23T00:56:42.267Z,29.66
2023-06-23T00:59:08.857Z,29.58
2023-06-23T01:01:43.006Z,29.96
2023-06-23T01:04:10.281Z,30.31
2023-06-23T01:07:08.000Z,30.61
2023-06-23T01:09:45.659Z,30.93
2023-06-23T01:12:20.540Z,31.18
2023-06-23T01:15:06.242Z,31.70
2023-06-23T01:18:02.072Z,31.92
2023-06-23T01:20:34.060Z,32.37
2023-06-23T01:23:15.384Z,32.82
2023-06-23T01:26:00.866Z,32.38
2023-06-23T01:28:33.408Z,32.80
2023-06-23T01:31:03.743Z,33.01
2023-06-23T01:33:45.670Z,33.27
2023-06-23T01:36:20.461Z,33.64
2023-06-23T01:38:50.655Z,33.86
2023-06-23T01:41:25.125Z,34.35
2023-06-23T01:44:04.971Z,34.54
2023-06-23T01:46:37.150Z,34.82
2023-06-23T01:49:20.454Z,35.32
2023-06-23T01:51:51.497Z,35.51
2023-06-23T01:54:20.517Z,35.81
2023-06-23T01:56:48.934Z,36.17
2023-06-23T01:59:19.875Z,36.53
2023-06-23T02:01:50.932Z,36.88
2023-06-23T02:04:42.960Z,37.15
2023-06-23T02:07:14.193Z,37.08
2023-06-23T02:09:42.853Z,37.14
2023-06-23T02:12:12.022Z,37.62
2023-06-23T02:14:40.946Z,37.81
2023-06-23T02:17:11.435Z,38.11
2023-06-23T02:19:44.412Z,38.61
2023-06-23T02:22:19.611Z,38.75
2023-06-23T02:24:48.313Z,39.02
2023-06-23T02:27:15.173Z,39.25
2023-06-23T02:29:43.164Z,39.20
2023-06-23T02:32:11.717Z,39.64
2023-06-23T02:34:48.148Z,39.69
2023-06-23T02:37:23.515Z,39.66
2023-06-23T02:39:58.795Z,40.13
2023-06-23T02:42:34.287Z,40.31
2023-06-23T02:45:04.844Z,40.62
2023-06-23T02:47:38.062Z,40.74
2023-06-23T02:50:07.842Z,40.52
2023-06-23T02:52:38.450Z,40.78
2023-06-23T02:55:08.921Z,41.58
2023-06-23T02:57:36.776Z,41.66
2023-06-23T03:00:21.201Z,42.72
2023-06-23T03:03:01.638Z,42.67
2023-06-23T03:05:28.649Z,42.51
2023-06-23T03:07:55.538Z,42.23
2023-06-23T03:10:28.707Z,42.11
2023-06-23T03:12:55.726Z,43.12
2023-06-23T03:15:22.556Z,43.35
2023-06-23T03:18:00.287Z,43.74
2023-06-23T03:20:38.795Z,43.40
2023-06-23T03:23:11.873Z,43.33
2023-06-23T03:25:42.432Z,43.08
2023-06-23T03:28:11.918Z,43.12
2023-06-23T03:30:54.843Z,43.41
2023-06-23T03:33:42.068Z,43.49
2023-06-23T03:36:20.987Z,43.09
2023-06-23T03:39:05.860Z,43.50
2023-06-23T03:41:34.623Z,43.65
2023-06-23T03:44:36.067Z,44.51
2023-06-23T03:47:14.908Z,44.27
2023-06-23T03:49:45.979Z,44.19
2023-06-23T03:52:14.193Z,44.01
2023-06-23T03:54:42.109Z,43.75
2023-06-23T03:57:12.155Z,43.42
2023-06-23T03:59:40.760Z,43.69
2023-06-23T04:02:17.381Z,43.02
2023-06-23T04:04:46.978Z,43.46
2023-06-23T04:07:15.461Z,43.11
2023-06-23T04:09:46.696Z,43.11
2023-06-23T04:12:15.598Z,43.55
2023-06-23T04:14:46.217Z,43.46
2023-06-23T04:17:17.225Z,43.63
2023-06-23T04:19:57.166Z,43.99
2023-06-23T04:22:24.983Z,44.20
2023-06-23T04:24:58.082Z,44.79
2023-06-23T04:27:29.915Z,43.91
2023-06-23T04:30:00.306Z,43.65
2023-06-23T04:32:27.090Z,42.37
2023-06-23T04:34:56.802Z,41.09
2023-06-23T04:37:45.837Z,41.29
2023-06-23T04:40:37.351Z,40.49
2023-06-23T04:43:15.585Z,40.38
2023-06-23T04:45:52.121Z,39.94
2023-06-23T04:48:24.681Z,39.39
2023-06-23T04:50:55.772Z,38.93
2023-06-23T04:53:26.647Z,38.58
2023-06-23T04:56:05.277Z,38.97
2023-06-23T04:58:39.214Z,38.80
2023-06-23T05:01:11.278Z,38.01
2023-06-23T05:03:40.016Z,37.70
2023-06-23T05:06:08.648Z,37.37
2023-06-23T05:08:36.859Z,37.43
2023-06-23T05:11:09.531Z,36.98
2023-06-23T05:13:37.744Z,37.14
2023-06-23T05:16:12.176Z,37.10
2023-06-23T05:18:40.398Z,37.00
2023-06-23T05:21:08.269Z,37.18
2023-06-23T05:23:51.735Z,37.16
2023-06-23T05:26:20.857Z,37.03
2023-06-23T05:28:49.496Z,36.34
2023-06-23T05:31:30.577Z,36.82
2023-06-23T05:33:59.995Z,37.17
2023-06-23T05:36:30.240Z,37.36
2023-06-23T05:39:00.676Z,37.76
2023-06-23T05:41:27.505Z,37.78
2023-06-23T05:43:54.179Z,37.34
2023-06-23T05:46:24.703Z,37.99
2023-06-23T05:49:01.354Z,38.70
2023-06-23T05:51:33.326Z,39.39
2023-06-23T05:54:09.641Z,40.82
2023-06-23T05:56:41.221Z,41.59
2023-06-23T05:59:24.084Z,41.84
2023-06-23T06:01:58.551Z,42.45
2023-06-23T06:04:31.176Z,43.40
2023-06-23T06:06:59.810Z,42.92
2023-06-23T06:09:30.684Z,43.35
2023-06-23T06:11:59.750Z,43.42
2023-06-23T06:14:29.983Z,43.94
2023-06-23T06:17:00.327Z,44.95
2023-06-23T06:19:30.634Z,45.49
2023-06-23T06:22:01.479Z,45.62
2023-06-23T06:24:34.482Z,46.25
2023-06-23T06:27:04.175Z,46.52
2023-06-23T06:29:33.879Z,46.44
2023-06-23T06:32:19.350Z,47.05
2023-06-23T06:34:48.545Z,47.25
2023-06-23T06:37:17.309Z,47.49
2023-06-23T06:39:45.844Z,47.82
2023-06-23T06:42:15.554Z,47.84
2023-06-23T06:44:42.229Z,47.76
2023-06-23T06:47:12.010Z,48.55
2023-06-23T06:49:45.464Z,48.53
2023-06-23T06:52:13.709Z,48.36
2023-06-23T06:54:40.999Z,47.59
2023-06-23T06:57:08.201Z,46.72
2023-06-23T06:59:53.815Z,46.73
2023-06-23T07:02:33.716Z,47.13
2023-06-23T07:05:03.316Z,46.94
2023-06-23T07:07:41.203Z,47.07
2023-06-23T07:10:12.995Z,47.39
2023-06-23T07:12:42.763Z,47.31
2023-06-23T07:15:10.401Z,47.60
2023-06-23T07:17:40.124Z,47.71
2023-06-23T07:20:27.497Z,47.25
2023-06-23T07:22:55.716Z,47.75
2023-06-23T07:25:22.369Z,47.70
2023-06-23T07:27:50.101Z,47.77
2023-06-23T07:30:17.647Z,47.90
2023-06-23T07:32:50.254Z,47.66
2023-06-23T07:35:17.097Z,47.53
2023-06-23T07:37:45.352Z,47.74
2023-06-23T07:40:25.624Z,47.71
2023-06-23T07:42:52.477Z,47.25
2023-06-23T07:45:19.117Z,47.52
2023-06-23T07:47:45.820Z,47.50
2023-06-23T07:50:12.594Z,46.98
2023-06-23T07:52:39.205Z,47.58
2023-06-23T07:55:06.521Z,47.63
2023-06-23T07:57:36.152Z,47.68
2023-06-23T08:00:04.296Z,48.10
2023-06-23T08:02:31.013Z,48.31
2023-06-23T08:04:57.736Z,47.67
2023-06-23T08:07:30.371Z,47.81
2023-06-23T08:09:57.472Z,48.17
2023-06-23T08:12:34.308Z,47.31
2023-06-23T08:15:01.791Z,47.28
2023-06-23T08:17:29.162Z,47.43
2023-06-23T08:19:55.911Z,47.00
2023-06-23T08:22:22.583Z,46.75
2023-06-23T08:24:49.232Z,47.51
2023-06-23T08:27:16.039Z,47.45
2023-06-23T08:29:42.806Z,47.20
2023-06-23T08:32:09.700Z,46.40
2023-06-23T08:34:38.649Z,46.30
2023-06-23T08:37:05.658Z,47.01
2023-06-23T08:39:32.882Z,45.78
2023-06-23T08:42:02.368Z,45.75
2023-06-23T08:44:31.247Z,44.63
2023-06-23T08:47:06.993Z,45.33
2023-06-23T08:49:39.847Z,45.41
2023-06-23T08:52:09.185Z,45.43
2023-06-23T08:54:36.966Z,44.59
2023-06-23T08:57:05.026Z,44.45
2023-06-23T08:59:36.416Z,44.10
2023-06-23T09:02:05.023Z,41.80
2023-06-23T09:04:31.788Z,42.55
2023-06-23T09:07:00.895Z,42.83
2023-06-23T09:09:28.679Z,42.97
2023-06-23T09:11:58.344Z,42.84
2023-06-23T09:14:34.918Z,44.11
2023-06-23T09:17:03.708Z,43.36
2023-06-23T09:19:41.959Z,42.63
2023-06-23T09:22:09.970Z,42.53
2023-06-23T09:24:49.579Z,42.38
2023-06-23T09:27:16.664Z,42.72
2023-06-23T09:30:00.706Z,41.69
2023-06-23T09:32:30.901Z,41.07
2023-06-23T09:34:57.622Z,41.59
2023-06-23T09:37:24.423Z,41.56
2023-06-23T09:39:56.284Z,40.66
2023-06-23T09:42:26.202Z,41.45
2023-06-23T09:44:53.144Z,41.34
2023-06-23T09:47:33.925Z,40.07
2023-06-23T09:50:09.137Z,41.08
2023-06-23T09:52:40.014Z,40.83
2023-06-23T09:55:07.566Z,40.51
2023-06-23T09:57:34.325Z,40.30
2023-06-23T10:00:01.538Z,40.26
2023-06-23T10:02:34.081Z,39.90
2023-06-23T10:05:04.238Z,39.93
2023-06-23T10:07:35.928Z,40.27
2023-06-23T10:10:20.759Z,39.54
2023-06-23T10:12:51.947Z,39.86
2023-06-23T10:15:18.888Z,39.89
2023-06-23T10:17:46.372Z,39.56
2023-06-23T10:20:33.888Z,39.55
2023-06-23T10:23:07.519Z,39.99
2023-06-23T10:25:38.723Z,39.51
2023-06-23T10:28:10.275Z,39.34
2023-06-23T10:30:37.860Z,39.29
2023-06-23T10:33:10.218Z,40.01
2023-06-23T10:35:41.136Z,38.94
2023-06-23T10:38:09.143Z,38.95
2023-06-23T10:40:41.345Z,38.77
2023-06-23T10:43:11.580Z,38.09
2023-06-23T10:45:39.019Z,38.04
2023-06-23T10:48:06.828Z,38.17
2023-06-23T10:50:33.926Z,37.53
2023-06-23T10:53:13.376Z,36.89
2023-06-23T10:55:54.685Z,37.37
2023-06-23T10:58:29.781Z,36.84
2023-06-23T11:01:04.678Z,35.56
2023-06-23T11:03:39.713Z,35.15
2023-06-23T11:06:11.455Z,34.53
2023-06-23T11:08:45.675Z,34.92
2023-06-23T11:11:13.834Z,35.23
2023-06-23T11:13:43.251Z,35.61
2023-06-23T11:16:40.639Z,35.03
2023-06-23T11:19:10.321Z,34.38
2023-06-23T11:21:49.208Z,35.46
2023-06-23T11:24:20.532Z,34.64
2023-06-23T11:27:00.901Z,34.67
2023-06-23T11:29:28.126Z,33.95
2023-06-23T11:32:21.268Z,35.07
2023-06-23T11:34:52.354Z,34.78
2023-06-23T11:37:25.729Z,34.68
2023-06-23T11:39:56.266Z,34.79
2023-06-23T11:42:24.301Z,34.89
2023-06-23T11:44:59.030Z,34.84
2023-06-23T11:47:29.899Z,33.76
2023-06-23T11:50:03.467Z,33.11
2023-06-23T11:52:30.788Z,34.17
2023-06-23T11:55:02.986Z,33.95
2023-06-23T11:57:33.692Z,33.43
2023-06-23T12:00:07.840Z,33.96
2023-06-23T12:02:37.743Z,34.22
2023-06-23T12:05:04.747Z,34.23
2023-06-23T12:07:33.036Z,34.43
2023-06-23T12:09:59.906Z,34.37
2023-06-23T12:12:26.721Z,33.77
2023-06-23T12:15:04.088Z,33.65
2023-06-23T12:17:30.835Z,33.63
2023-06-23T12:19:59.651Z,33.19
2023-06-23T12:22:40.501Z,33.44
2023-06-23T12:25:07.766Z,33.61
2023-06-23T12:27:52.632Z,33.27
2023-06-23T12:30:23.713Z,32.84
2023-06-23T12:32:56.333Z,33.78
2023-06-23T12:35:23.605Z,33.55
2023-06-23T12:37:50.689Z,33.39
2023-06-23T12:40:36.581Z,33.71
2023-06-23T12:43:09.596Z,34.48
2023-06-23T12:45:39.503Z,34.20
2023-06-23T12:48:09.992Z,32.96
2023-06-23T12:50:49.472Z,33.25
2023-06-23T12:53:16.470Z,32.31
2023-06-23T12:55:44.036Z,32.77
2023-06-23T12:58:20.392Z,33.17
2023-06-23T13:00:47.085Z,32.91
2023-06-23T13:03:16.485Z,33.60
2023-06-23T13:05:49.104Z,34.08
2023-06-23T13:08:20.361Z,35.73
2023-06-23T13:10:48.129Z,36.08
2023-06-23T13:13:14.897Z,35.86
2023-06-23T13:15:43.768Z,35.87
2023-06-23T13:18:15.785Z,35.80
2023-06-23T13:20:43.918Z,35.74
2023-06-23T13:23:11.437Z,37.06
2023-06-23T13:26:01.697Z,37.25
2023-06-23T13:28:34.988Z,37.48
2023-06-23T13:31:06.140Z,38.03
2023-06-23T13:33:36.259Z,38.30
2023-06-23T13:36:06.560Z,38.95
2023-06-23T13:38:44.078Z,39.18
2023-06-23T13:41:11.222Z,39.96
2023-06-23T13:43:37.807Z,40.18
2023-06-23T13:46:04.513Z,39.47
2023-06-23T13:48:31.277Z,40.00
2023-06-23T13:51:03.346Z,39.98
2023-06-23T13:53:31.371Z,40.53
2023-06-23T13:55:58.658Z,41.40
2023-06-23T13:58:25.384Z,41.30
2023-06-23T14:00:58.389Z,41.52
2023-06-23T14:03:25.330Z,41.07
2023-06-23T14:05:55.379Z,41.48
2023-06-23T14:08:23.894Z,42.29
2023-06-23T14:10:54.128Z,46.45
2023-06-23T14:13:21.117Z,50.63
2023-06-23T14:15:47.804Z,53.13
2023-06-23T14:18:14.724Z,53.86
2023-06-23T14:20:41.558Z,56.63
2023-06-23T14:23:08.466Z,57.37
2023-06-23T14:25:43.999Z,57.46
2023-06-23T14:28:11.750Z,63.39
2023-06-23T14:30:38.364Z,67.92
2023-06-23T14:33:09.745Z,70.34
2023-06-23T14:35:36.692Z,71.74
2023-06-23T14:38:07.283Z,72.02
2023-06-23T14:40:36.812Z,73.06
2023-06-23T14:43:09.247Z,73.21
2023-06-23T14:45:40.900Z,73.34
2023-06-23T14:48:08.786Z,72.83
2023-06-23T14:50:35.867Z,70.71
2023-06-23T14:53:02.553Z,70.76
2023-06-23T14:55:31.353Z,72.55
2023-06-23T14:57:58.541Z,72.50
2023-06-23T15:00:25.342Z,72.20
2023-06-23T15:02:54.324Z,70.75
2023-06-23T15:05:21.186Z,72.35
2023-06-23T15:07:48.373Z,71.96
2023-06-23T15:10:19.746Z,66.10
2023-06-23T15:12:46.649Z,69.10
2023-06-23T15:15:14.064Z,70.49
2023-06-23T15:17:40.723Z,67.94
2023-06-23T15:20:08.402Z,67.12
2023-06-23T15:22:38.202Z,65.63
2023-06-23T15:25:05.151Z,64.54
2023-06-23T15:27:31.882Z,63.78
2023-06-23T15:29:58.721Z,64.19
2023-06-23T15:32:25.650Z,65.19
2023-06-23T15:35:02.031Z,64.75
2023-06-23T15:37:32.255Z,63.17
2023-06-23T15:39:59.662Z,62.92
2023-06-23T15:42:26.403Z,64.10
2023-06-23T15:44:53.159Z,62.57
2023-06-23T15:47:20.062Z,61.12
2023-06-23T15:49:47.098Z,63.44
2023-06-23T15:52:23.693Z,63.00
2023-06-23T15:54:50.911Z,60.46
2023-06-23T15:57:20.142Z,60.05
2023-06-23T15:59:52.126Z,62.92
2023-06-23T16:02:26.777Z,62.00
2023-06-23T16:04:53.816Z,61.11
2023-06-23T16:07:20.581Z,61.24
2023-06-23T16:09:50.073Z,60.08
2023-06-23T16:12:16.759Z,58.43
2023-06-23T16:14:43.596Z,57.19
2023-06-23T16:17:12.700Z,56.54
2023-06-23T16:19:39.925Z,56.55
2023-06-23T16:22:11.015Z,55.09
2023-06-23T16:24:37.825Z,54.48
2023-06-23T16:27:11.125Z,54.24
2023-06-23T16:29:37.851Z,53.27
2023-06-23T16:32:07.563Z,52.52
2023-06-23T16:34:34.535Z,52.43
2023-06-23T16:37:02.883Z,50.50
2023-06-23T16:39:32.417Z,50.19
2023-06-23T16:42:00.995Z,52.60
2023-06-23T16:44:27.741Z,49.27
2023-06-23T16:46:55.037Z,47.34
2023-06-23T16:49:22.760Z,48.37
2023-06-23T16:51:49.525Z,48.98
2023-06-23T16:54:16.296Z,49.48
2023-06-23T16:56:43.093Z,48.55
2023-06-23T16:59:10.007Z,49.27
2023-06-23T17:01:55.543Z,49.11
2023-06-23T17:04:39.742Z,49.16
2023-06-23T17:07:20.983Z,50.49
2023-06-23T17:09:53.657Z,50.70
2023-06-23T17:12:22.824Z,50.86
2023-06-23T17:15:06.892Z,52.42
2023-06-23T17:17:34.788Z,53.08
2023-06-23T17:20:09.866Z,52.71
2023-06-23T17:22:46.296Z,52.11
2023-06-23T17:25:13.371Z,52.85
2023-06-23T17:27:46.451Z,53.15
2023-06-23T17:30:21.093Z,52.07
2023-06-23T17:33:09.925Z,52.11
2023-06-23T17:35:53.004Z,52.36
2023-06-23T17:38:30.638Z,52.69
2023-06-23T17:41:20.544Z,51.68
2023-06-23T17:43:48.754Z,51.44
2023-06-23T17:46:29.831Z,50.90
2023-06-23T17:49:11.520Z,52.02
2023-06-23T17:51:48.398Z,49.12
2023-06-23T17:54:16.976Z,49.11
2023-06-23T17:56:50.353Z,48.55
2023-06-23T17:59:21.306Z,48.43
2023-06-23T18:02:01.445Z,48.53
2023-06-23T18:04:31.774Z,50.49
2023-06-23T18:07:11.714Z,51.93
2023-06-23T18:09:48.619Z,53.20
2023-06-23T18:12:34.022Z,50.86
2023-06-23T18:15:19.664Z,50.62
2023-06-23T18:17:59.094Z,50.73
2023-06-23T18:20:41.042Z,51.70
2023-06-23T18:23:09.494Z,52.66
2023-06-23T18:25:50.170Z,53.88
2023-06-23T18:28:32.453Z,54.79
2023-06-23T18:31:07.969Z,55.08
2023-06-23T18:33:42.441Z,53.91
2023-06-23T18:36:22.423Z,52.47
2023-06-23T18:38:55.591Z,55.45
2023-06-23T18:41:34.112Z,55.91
2023-06-23T18:44:20.618Z,55.98
2023-06-23T18:46:57.020Z,55.59
2023-06-23T18:49:23.934Z,55.18
2023-06-23T18:51:51.246Z,55.79
2023-06-23T18:54:18.307Z,55.96
2023-06-23T18:56:59.688Z,55.55
2023-06-23T18:59:43.744Z,55.67
2023-06-23T19:02:11.976Z,55.97
2023-06-23T19:04:45.316Z,55.91
2023-06-23T19:07:23.704Z,57.59
2023-06-23T19:10:09.247Z,59.13
2023-06-23T19:12:53.362Z,58.34
2023-06-23T19:15:31.310Z,58.33
2023-06-23T19:17:58.119Z,58.87
2023-06-23T19:20:24.992Z,58.38
2023-06-23T19:22:51.702Z,58.30
2023-06-23T19:25:21.455Z,57.99
2023-06-23T19:27:48.148Z,59.19
2023-06-23T19:30:26.204Z,59.63
2023-06-23T19:33:01.623Z,59.50
2023-06-23T19:35:29.210Z,59.53
2023-06-23T19:38:02.592Z,60.01
2023-06-23T19:40:33.379Z,59.17
2023-06-23T19:43:02.002Z,59.31
2023-06-23T19:45:33.531Z,58.80
2023-06-23T19:48:00.373Z,58.95
2023-06-23T19:50:29.903Z,58.73
2023-06-23T19:52:57.847Z,58.45
2023-06-23T19:55:30.968Z,58.62
2023-06-23T19:58:03.970Z,58.52
2023-06-23T20:00:43.291Z,58.46
2023-06-23T20:03:15.214Z,58.46
2023-06-23T20:05:53.406Z,57.84
2023-06-23T20:11:09.484Z,57.70
2023-06-23T20:13:48.448Z,57.33
2023-06-23T20:16:24.893Z,57.76
2023-06-23T20:19:04.694Z,58.13
2023-06-23T20:21:42.547Z,58.50
2023-06-23T20:24:25.841Z,59.99
2023-06-23T20:26:53.111Z,58.47
2023-06-23T20:29:33.295Z,58.60
2023-06-23T20:32:14.820Z,58.94
2023-06-23T20:34:54.360Z,59.26
2023-06-23T20:37:33.257Z,59.80
2023-06-23T20:40:15.091Z,60.20
2023-06-23T20:42:52.220Z,59.64
2023-06-23T20:45:21.420Z,59.03
2023-06-23T20:47:48.501Z,58.77
2023-06-23T20:50:20.028Z,58.70
2023-06-23T20:52:51.974Z,58.46
2023-06-23T20:55:19.175Z,58.74
2023-06-23T20:57:52.836Z,57.98
2023-06-23T21:00:26.973Z,57.68
2023-06-23T21:02:56.819Z,58.70
2023-06-23T21:05:23.553Z,58.73
2023-06-23T21:07:55.323Z,58.75
2023-06-23T21:10:32.496Z,58.88
2023-06-23T21:12:59.170Z,58.39
2023-06-23T21:15:29.710Z,59.38
2023-06-23T21:17:59.796Z,60.33
2023-06-23T21:20:35.725Z,60.19
2023-06-23T21:23:05.130Z,60.39
2023-06-23T21:25:32.718Z,60.52
2023-06-23T21:28:09.079Z,60.67
2023-06-23T21:30:45.010Z,60.17
2023-06-23T21:33:17.667Z,59.97
2023-06-23T21:35:44.939Z,60.35
2023-06-23T21:38:21.066Z,60.04
2023-06-23T21:40:47.787Z,59.08
2023-06-23T21:43:15.876Z,59.59
2023-06-23T21:45:50.286Z,58.29
2023-06-23T21:48:21.039Z,57.72
2023-06-23T21:50:51.319Z,58.58
2023-06-23T21:53:30.070Z,58.79
2023-06-23T21:56:00.811Z,57.70
2023-06-23T21:58:36.770Z,57.77
2023-06-23T22:01:03.610Z,56.97
2023-06-23T22:03:31.730Z,57.75
2023-06-23T22:06:00.798Z,58.27
2023-06-23T22:08:27.696Z,57.93
2023-06-23T22:11:06.955Z,58.11
2023-06-23T22:13:45.060Z,57.41
2023-06-23T22:16:11.849Z,57.12
2023-06-23T22:18:49.755Z,54.94
2023-06-23T22:21:19.173Z,53.04
2023-06-23T22:23:46.366Z,53.38
2023-06-23T22:26:15.338Z,55.61
2023-06-23T22:28:52.369Z,55.94
2023-06-23T22:31:19.045Z,55.93
2023-06-23T22:33:46.014Z,55.70
2023-06-23T22:36:18.204Z,55.87
2023-06-23T22:38:45.694Z,54.99
2023-06-23T22:41:21.858Z,55.62
2023-06-23T22:43:53.361Z,56.43
2023-06-23T22:46:28.253Z,56.60
2023-06-23T22:48:58.781Z,57.52
2023-06-23T22:51:25.893Z,58.33
2023-06-23T22:53:52.647Z,58.60
2023-06-23T22:56:21.656Z,59.05
2023-06-23T22:58:55.405Z,59.64
2023-06-23T23:01:25.036Z,60.33
2023-06-23T23:03:53.308Z,60.45
2023-06-23T23:06:20.035Z,60.75
2023-06-23T23:08:49.710Z,60.49
2023-06-23T23:11:16.721Z,61.04
2023-06-23T23:13:44.565Z,61.20
2023-06-23T23:16:13.921Z,61.40
2023-06-23T23:18:44.896Z,61.24
2023-06-23T23:21:15.695Z,61.27
2023-06-23T23:23:42.447Z,61.48
2023-06-23T23:26:14.846Z,62.16
2023-06-23T23:28:43.407Z,62.08
2023-06-23T23:31:10.258Z,61.65
2023-06-23T23:33:40.943Z,61.66
2023-06-23T23:36:11.351Z,62.20
2023-06-23T23:38:37.977Z,62.30
2023-06-23T23:41:09.132Z,62.28
2023-06-23T23:43:37.232Z,63.23
2023-06-23T23:46:03.937Z,63.67
2023-06-23T23:48:32.629Z,63.14
2023-06-23T23:51:05.397Z,63.42
2023-06-23T23:53:32.095Z,63.44
2023-06-23T23:55:58.868Z,63.28
2023-06-23T23:58:26.261Z,64.01
